sensor_id;sensor_type;location;lat;lon;timestamp;P1;durP1;ratioP1;P2;durP2;ratioP2
22435;SDS011;11385;50.822;4.324;2024-03-07T00:01:01;19.50;;;11.03;;
22435;SDS011;11385;50.822;4.324;2024-03-07T00:03:28;21.40;;;12.58;;
22435;SDS011;11385;50.822;4.324;2024-03-07T00:05:54;21.50;;;12.07;;
22435;SDS011;11385;50.822;4.324;2024-03-07T00:08:21;23.77;;;12.68;;
22435;SDS011;11385;50.822;4.324;2024-03-07T00:10:48;26.17;;;13.70;;
22435;SDS011;11385;50.822;4.324;2024-03-07T00:13:15;25.90;;;13.68;;
22435;SDS011;11385;50.822;4.324;2024-03-07T00:15:41;27.15;;;13.90;;
22435;SDS011;11385;50.822;4.324;2024-03-07T00:18:08;26.37;;;13.70;;
22435;SDS011;11385;50.822;4.324;2024-03-07T00:20:36;27.15;;;14.45;;
22435;SDS011;11385;50.822;4.324;2024-03-07T00:23:04;25.90;;;13.88;;
22435;SDS011;11385;50.822;4.324;2024-03-07T00:25:33;22.45;;;13.90;;
22435;SDS011;11385;50.822;4.324;2024-03-07T00:28:00;31.80;;;15.23;;
22435;SDS011;11385;50.822;4.324;2024-03-07T00:30:29;28.83;;;15.35;;
22435;SDS011;11385;50.822;4.324;2024-03-07T00:32:56;28.12;;;15.63;;
22435;SDS011;11385;50.822;4.324;2024-03-07T00:35:24;27.45;;;15.10;;
22435;SDS011;11385;50.822;4.324;2024-03-07T00:37:51;29.00;;;14.98;;
22435;SDS011;11385;50.822;4.324;2024-03-07T00:40:18;30.00;;;15.28;;
22435;SDS011;11385;50.822;4.324;2024-03-07T00:42:46;33.75;;;17.27;;
22435;SDS011;11385;50.822;4.324;2024-03-07T00:45:13;30.40;;;17.10;;
22435;SDS011;11385;50.822;4.324;2024-03-07T00:47:40;35.90;;;17.77;;
22435;SDS011;11385;50.822;4.324;2024-03-07T00:50:07;34.63;;;17.73;;
22435;SDS011;11385;50.822;4.324;2024-03-07T00:52:34;34.73;;;17.87;;
22435;SDS011;11385;50.822;4.324;2024-03-07T00:57:28;35.63;;;18.55;;
22435;SDS011;11385;50.822;4.324;2024-03-07T00:59:55;37.40;;;19.05;;
22435;SDS011;11385;50.822;4.324;2024-03-07T01:02:22;41.75;;;21.00;;
22435;SDS011;11385;50.822;4.324;2024-03-07T01:04:49;37.00;;;19.17;;
22435;SDS011;11385;50.822;4.324;2024-03-07T01:07:16;38.02;;;19.92;;
22435;SDS011;11385;50.822;4.324;2024-03-07T01:09:43;42.25;;;20.90;;
22435;SDS011;11385;50.822;4.324;2024-03-07T01:12:10;44.00;;;20.95;;
22435;SDS011;11385;50.822;4.324;2024-03-07T01:14:36;44.95;;;22.48;;
22435;SDS011;11385;50.822;4.324;2024-03-07T01:17:04;46.63;;;22.10;;
22435;SDS011;11385;50.822;4.324;2024-03-07T01:19:33;45.67;;;22.52;;
22435;SDS011;11385;50.822;4.324;2024-03-07T01:21:59;43.68;;;22.90;;
22435;SDS011;11385;50.822;4.324;2024-03-07T01:24:27;43.02;;;21.62;;
22435;SDS011;11385;50.822;4.324;2024-03-07T01:26:54;46.95;;;22.75;;
22435;SDS011;11385;50.822;4.324;2024-03-07T01:29:20;48.87;;;23.92;;
22435;SDS011;11385;50.822;4.324;2024-03-07T01:31:48;45.55;;;23.22;;
22435;SDS011;11385;50.822;4.324;2024-03-07T01:34:15;44.10;;;22.48;;
22435;SDS011;11385;50.822;4.324;2024-03-07T01:36:41;48.00;;;22.32;;
22435;SDS011;11385;50.822;4.324;2024-03-07T01:39:08;41.37;;;21.50;;
22435;SDS011;11385;50.822;4.324;2024-03-07T01:41:36;42.27;;;22.02;;
22435;SDS011;11385;50.822;4.324;2024-03-07T01:44:02;43.25;;;22.30;;
22435;SDS011;11385;50.822;4.324;2024-03-07T01:46:29;42.38;;;22.15;;
22435;SDS011;11385;50.822;4.324;2024-03-07T01:48:57;45.03;;;22.30;;
22435;SDS011;11385;50.822;4.324;2024-03-07T01:51:24;44.93;;;22.95;;
22435;SDS011;11385;50.822;4.324;2024-03-07T01:53:52;44.15;;;23.35;;
22435;SDS011;11385;50.822;4.324;2024-03-07T01:56:20;45.70;;;22.87;;
22435;SDS011;11385;50.822;4.324;2024-03-07T01:58:48;43.05;;;22.60;;
22435;SDS011;11385;50.822;4.324;2024-03-07T02:01:18;47.23;;;23.45;;
22435;SDS011;11385;50.822;4.324;2024-03-07T02:03:44;44.45;;;22.75;;
22435;SDS011;11385;50.822;4.324;2024-03-07T02:06:12;41.68;;;23.07;;
22435;SDS011;11385;50.822;4.324;2024-03-07T02:08:38;41.65;;;22.20;;
22435;SDS011;11385;50.822;4.324;2024-03-07T02:11:05;42.38;;;20.27;;
22435;SDS011;11385;50.822;4.324;2024-03-07T02:13:32;41.77;;;20.70;;
22435;SDS011;11385;50.822;4.324;2024-03-07T02:15:58;40.35;;;20.77;;
22435;SDS011;11385;50.822;4.324;2024-03-07T02:18:27;36.28;;;20.08;;
22435;SDS011;11385;50.822;4.324;2024-03-07T02:20:54;36.10;;;19.57;;
22435;SDS011;11385;50.822;4.324;2024-03-07T02:23:21;42.15;;;19.75;;
22435;SDS011;11385;50.822;4.324;2024-03-07T02:25:47;37.42;;;19.75;;
22435;SDS011;11385;50.822;4.324;2024-03-07T02:28:14;40.95;;;19.95;;
22435;SDS011;11385;50.822;4.324;2024-03-07T02:30:41;41.28;;;21.95;;
22435;SDS011;11385;50.822;4.324;2024-03-07T02:33:08;47.67;;;22.58;;
22435;SDS011;11385;50.822;4.324;2024-03-07T02:35:35;42.78;;;22.25;;
22435;SDS011;11385;50.822;4.324;2024-03-07T02:38:02;41.88;;;21.62;;
22435;SDS011;11385;50.822;4.324;2024-03-07T02:40:29;51.15;;;25.08;;
22435;SDS011;11385;50.822;4.324;2024-03-07T02:42:57;50.65;;;25.23;;
22435;SDS011;11385;50.822;4.324;2024-03-07T02:45:23;54.18;;;25.08;;
22435;SDS011;11385;50.822;4.324;2024-03-07T02:47:51;47.88;;;25.10;;
22435;SDS011;11385;50.822;4.324;2024-03-07T02:50:19;51.10;;;25.30;;
22435;SDS011;11385;50.822;4.324;2024-03-07T02:52:47;53.92;;;25.77;;
22435;SDS011;11385;50.822;4.324;2024-03-07T02:55:15;52.62;;;25.70;;
22435;SDS011;11385;50.822;4.324;2024-03-07T02:57:42;54.25;;;26.42;;
22435;SDS011;11385;50.822;4.324;2024-03-07T03:00:09;55.92;;;26.02;;
22435;SDS011;11385;50.822;4.324;2024-03-07T03:02:42;50.55;;;25.70;;
22435;SDS011;11385;50.822;4.324;2024-03-07T03:05:08;53.23;;;25.35;;
22435;SDS011;11385;50.822;4.324;2024-03-07T03:07:35;53.55;;;26.42;;
22435;SDS011;11385;50.822;4.324;2024-03-07T03:10:02;60.90;;;28.60;;
22435;SDS011;11385;50.822;4.324;2024-03-07T03:12:31;53.90;;;27.15;;
22435;SDS011;11385;50.822;4.324;2024-03-07T03:14:58;50.28;;;26.12;;
22435;SDS011;11385;50.822;4.324;2024-03-07T03:17:24;51.58;;;25.90;;
22435;SDS011;11385;50.822;4.324;2024-03-07T03:19:51;49.45;;;26.25;;
22435;SDS011;11385;50.822;4.324;2024-03-07T03:22:20;51.02;;;25.65;;
22435;SDS011;11385;50.822;4.324;2024-03-07T03:24:46;50.65;;;24.92;;
22435;SDS011;11385;50.822;4.324;2024-03-07T03:27:13;49.83;;;24.98;;
22435;SDS011;11385;50.822;4.324;2024-03-07T03:29:39;47.70;;;24.05;;
22435;SDS011;11385;50.822;4.324;2024-03-07T03:32:06;47.75;;;24.63;;
22435;SDS011;11385;50.822;4.324;2024-03-07T03:34:33;49.85;;;24.25;;
22435;SDS011;11385;50.822;4.324;2024-03-07T03:36:59;46.40;;;24.37;;
22435;SDS011;11385;50.822;4.324;2024-03-07T03:39:26;49.50;;;24.50;;
22435;SDS011;11385;50.822;4.324;2024-03-07T03:41:53;47.15;;;23.87;;
22435;SDS011;11385;50.822;4.324;2024-03-07T03:44:20;47.62;;;24.12;;
22435;SDS011;11385;50.822;4.324;2024-03-07T03:46:46;50.58;;;24.92;;
22435;SDS011;11385;50.822;4.324;2024-03-07T03:49:14;49.35;;;24.92;;
22435;SDS011;11385;50.822;4.324;2024-03-07T03:51:41;58.23;;;25.52;;
22435;SDS011;11385;50.822;4.324;2024-03-07T03:54:08;56.40;;;27.80;;
22435;SDS011;11385;50.822;4.324;2024-03-07T03:56:35;59.98;;;27.27;;
22435;SDS011;11385;50.822;4.324;2024-03-07T03:59:02;53.35;;;26.97;;
22435;SDS011;11385;50.822;4.324;2024-03-07T04:01:30;63.98;;;29.82;;
22435;SDS011;11385;50.822;4.324;2024-03-07T04:03:57;61.40;;;28.62;;
22435;SDS011;11385;50.822;4.324;2024-03-07T04:06:25;58.02;;;29.35;;
22435;SDS011;11385;50.822;4.324;2024-03-07T04:08:51;61.20;;;29.98;;
22435;SDS011;11385;50.822;4.324;2024-03-07T04:11:20;64.20;;;30.85;;
22435;SDS011;11385;50.822;4.324;2024-03-07T04:13:47;60.95;;;30.02;;
22435;SDS011;11385;50.822;4.324;2024-03-07T04:16:14;63.23;;;30.35;;
22435;SDS011;11385;50.822;4.324;2024-03-07T04:18:42;54.48;;;27.80;;
22435;SDS011;11385;50.822;4.324;2024-03-07T04:21:09;60.67;;;30.77;;
22435;SDS011;11385;50.822;4.324;2024-03-07T04:23:35;69.07;;;31.45;;
22435;SDS011;11385;50.822;4.324;2024-03-07T04:26:04;68.70;;;31.57;;
22435;SDS011;11385;50.822;4.324;2024-03-07T04:28:30;62.80;;;28.60;;
22435;SDS011;11385;50.822;4.324;2024-03-07T04:30:58;66.45;;;31.00;;
22435;SDS011;11385;50.822;4.324;2024-03-07T04:33:24;63.42;;;30.72;;
22435;SDS011;11385;50.822;4.324;2024-03-07T04:35:52;69.15;;;30.77;;
22435;SDS011;11385;50.822;4.324;2024-03-07T04:38:19;67.85;;;30.85;;
22435;SDS011;11385;50.822;4.324;2024-03-07T04:40:45;64.53;;;30.80;;
22435;SDS011;11385;50.822;4.324;2024-03-07T04:43:12;72.65;;;31.77;;
22435;SDS011;11385;50.822;4.324;2024-03-07T04:45:38;66.82;;;30.90;;
22435;SDS011;11385;50.822;4.324;2024-03-07T04:48:05;63.80;;;30.20;;
22435;SDS011;11385;50.822;4.324;2024-03-07T04:50:34;67.97;;;30.32;;
22435;SDS011;11385;50.822;4.324;2024-03-07T04:53:00;61.50;;;30.77;;
22435;SDS011;11385;50.822;4.324;2024-03-07T04:55:27;69.85;;;32.17;;
22435;SDS011;11385;50.822;4.324;2024-03-07T04:57:54;72.25;;;31.90;;
22435;SDS011;11385;50.822;4.324;2024-03-07T05:00:21;74.58;;;33.02;;
22435;SDS011;11385;50.822;4.324;2024-03-07T05:02:49;75.17;;;30.08;;
22435;SDS011;11385;50.822;4.324;2024-03-07T05:05:15;71.67;;;31.17;;
22435;SDS011;11385;50.822;4.324;2024-03-07T05:07:48;68.22;;;31.65;;
22435;SDS011;11385;50.822;4.324;2024-03-07T05:10:16;71.35;;;31.48;;
22435;SDS011;11385;50.822;4.324;2024-03-07T05:12:43;65.62;;;31.95;;
22435;SDS011;11385;50.822;4.324;2024-03-07T05:15:10;72.10;;;32.10;;
22435;SDS011;11385;50.822;4.324;2024-03-07T05:17:37;71.20;;;31.87;;
22435;SDS011;11385;50.822;4.324;2024-03-07T05:20:05;69.37;;;31.27;;
22435;SDS011;11385;50.822;4.324;2024-03-07T05:22:42;76.35;;;33.02;;
22435;SDS011;11385;50.822;4.324;2024-03-07T05:25:13;70.33;;;31.80;;
22435;SDS011;11385;50.822;4.324;2024-03-07T05:27:41;75.78;;;31.30;;
22435;SDS011;11385;50.822;4.324;2024-03-07T05:30:08;71.15;;;32.17;;
22435;SDS011;11385;50.822;4.324;2024-03-07T05:32:38;78.12;;;35.08;;
22435;SDS011;11385;50.822;4.324;2024-03-07T05:35:05;74.92;;;32.50;;
22435;SDS011;11385;50.822;4.324;2024-03-07T05:37:33;82.90;;;34.23;;
22435;SDS011;11385;50.822;4.324;2024-03-07T05:39:59;83.17;;;33.95;;
22435;SDS011;11385;50.822;4.324;2024-03-07T05:42:28;89.77;;;34.70;;
22435;SDS011;11385;50.822;4.324;2024-03-07T05:44:55;85.00;;;35.45;;
22435;SDS011;11385;50.822;4.324;2024-03-07T05:47:21;83.50;;;34.35;;
22435;SDS011;11385;50.822;4.324;2024-03-07T05:49:51;85.80;;;36.42;;
22435;SDS011;11385;50.822;4.324;2024-03-07T05:52:18;85.70;;;33.75;;
22435;SDS011;11385;50.822;4.324;2024-03-07T05:54:44;93.60;;;35.13;;
22435;SDS011;11385;50.822;4.324;2024-03-07T05:57:11;88.70;;;35.00;;
22435;SDS011;11385;50.822;4.324;2024-03-07T05:59:38;89.25;;;34.13;;
22435;SDS011;11385;50.822;4.324;2024-03-07T06:02:05;89.72;;;34.38;;
22435;SDS011;11385;50.822;4.324;2024-03-07T06:04:31;86.05;;;34.13;;
22435;SDS011;11385;50.822;4.324;2024-03-07T06:06:59;94.13;;;36.03;;
22435;SDS011;11385;50.822;4.324;2024-03-07T06:09:26;91.20;;;37.15;;
22435;SDS011;11385;50.822;4.324;2024-03-07T06:11:53;93.58;;;35.52;;
22435;SDS011;11385;50.822;4.324;2024-03-07T06:14:19;88.82;;;35.63;;
22435;SDS011;11385;50.822;4.324;2024-03-07T06:16:48;86.57;;;34.40;;
22435;SDS011;11385;50.822;4.324;2024-03-07T06:19:15;84.62;;;36.77;;
22435;SDS011;11385;50.822;4.324;2024-03-07T06:21:42;83.90;;;34.63;;
22435;SDS011;11385;50.822;4.324;2024-03-07T06:24:11;83.70;;;33.67;;
22435;SDS011;11385;50.822;4.324;2024-03-07T06:26:40;81.63;;;36.48;;
22435;SDS011;11385;50.822;4.324;2024-03-07T06:29:15;90.67;;;35.83;;
22435;SDS011;11385;50.822;4.324;2024-03-07T06:31:42;85.45;;;34.48;;
22435;SDS011;11385;50.822;4.324;2024-03-07T06:34:12;88.35;;;33.67;;
22435;SDS011;11385;50.822;4.324;2024-03-07T06:36:39;84.67;;;34.75;;
22435;SDS011;11385;50.822;4.324;2024-03-07T06:39:07;87.45;;;34.53;;
22435;SDS011;11385;50.822;4.324;2024-03-07T06:41:37;85.22;;;35.03;;
22435;SDS011;11385;50.822;4.324;2024-03-07T06:44:04;91.80;;;35.33;;
22435;SDS011;11385;50.822;4.324;2024-03-07T06:46:32;82.67;;;34.78;;
22435;SDS011;11385;50.822;4.324;2024-03-07T06:49:00;79.90;;;33.40;;
22435;SDS011;11385;50.822;4.324;2024-03-07T06:51:27;80.80;;;33.53;;
22435;SDS011;11385;50.822;4.324;2024-03-07T06:53:54;85.65;;;35.85;;
22435;SDS011;11385;50.822;4.324;2024-03-07T06:56:21;77.75;;;32.48;;
22435;SDS011;11385;50.822;4.324;2024-03-07T06:58:50;79.47;;;32.93;;
22435;SDS011;11385;50.822;4.324;2024-03-07T07:01:16;75.22;;;32.10;;
22435;SDS011;11385;50.822;4.324;2024-03-07T07:03:45;83.70;;;32.30;;
22435;SDS011;11385;50.822;4.324;2024-03-07T07:06:13;84.45;;;32.33;;
22435;SDS011;11385;50.822;4.324;2024-03-07T07:08:39;88.95;;;34.30;;
22435;SDS011;11385;50.822;4.324;2024-03-07T07:11:06;86.80;;;32.03;;
22435;SDS011;11385;50.822;4.324;2024-03-07T07:13:33;78.72;;;32.95;;
22435;SDS011;11385;50.822;4.324;2024-03-07T07:15:59;87.90;;;32.90;;
22435;SDS011;11385;50.822;4.324;2024-03-07T07:18:26;77.03;;;31.48;;
22435;SDS011;11385;50.822;4.324;2024-03-07T07:20:53;79.07;;;32.08;;
22435;SDS011;11385;50.822;4.324;2024-03-07T07:23:21;78.35;;;32.48;;
22435;SDS011;11385;50.822;4.324;2024-03-07T07:25:49;84.60;;;33.28;;
22435;SDS011;11385;50.822;4.324;2024-03-07T07:28:15;79.37;;;31.55;;
22435;SDS011;11385;50.822;4.324;2024-03-07T07:30:42;78.10;;;32.20;;
22435;SDS011;11385;50.822;4.324;2024-03-07T07:33:09;84.90;;;34.18;;
22435;SDS011;11385;50.822;4.324;2024-03-07T07:35:36;76.87;;;32.28;;
22435;SDS011;11385;50.822;4.324;2024-03-07T07:38:02;82.40;;;32.70;;
22435;SDS011;11385;50.822;4.324;2024-03-07T07:40:29;85.70;;;34.55;;
22435;SDS011;11385;50.822;4.324;2024-03-07T07:42:58;71.80;;;32.28;;
22435;SDS011;11385;50.822;4.324;2024-03-07T07:45:26;77.67;;;30.10;;
22435;SDS011;11385;50.822;4.324;2024-03-07T07:47:53;72.30;;;31.05;;
22435;SDS011;11385;50.822;4.324;2024-03-07T07:50:21;77.70;;;32.28;;
22435;SDS011;11385;50.822;4.324;2024-03-07T07:52:50;73.87;;;32.38;;
22435;SDS011;11385;50.822;4.324;2024-03-07T07:55:20;82.97;;;31.37;;
22435;SDS011;11385;50.822;4.324;2024-03-07T07:57:49;77.87;;;30.82;;
22435;SDS011;11385;50.822;4.324;2024-03-07T08:00:20;77.42;;;31.87;;
22435;SDS011;11385;50.822;4.324;2024-03-07T08:02:55;74.62;;;30.60;;
22435;SDS011;11385;50.822;4.324;2024-03-07T08:05:24;74.10;;;31.30;;
22435;SDS011;11385;50.822;4.324;2024-03-07T08:07:53;74.95;;;32.35;;
22435;SDS011;11385;50.822;4.324;2024-03-07T08:10:26;75.50;;;32.93;;
22435;SDS011;11385;50.822;4.324;2024-03-07T08:12:55;76.80;;;32.90;;
22435;SDS011;11385;50.822;4.324;2024-03-07T08:15:24;69.00;;;30.02;;
22435;SDS011;11385;50.822;4.324;2024-03-07T08:17:53;72.35;;;31.60;;
22435;SDS011;11385;50.822;4.324;2024-03-07T08:20:21;69.25;;;28.85;;
22435;SDS011;11385;50.822;4.324;2024-03-07T08:22:49;87.53;;;31.40;;
22435;SDS011;11385;50.822;4.324;2024-03-07T08:25:19;72.22;;;29.50;;
22435;SDS011;11385;50.822;4.324;2024-03-07T08:27:47;69.22;;;29.18;;
22435;SDS011;11385;50.822;4.324;2024-03-07T08:30:15;73.62;;;30.57;;
22435;SDS011;11385;50.822;4.324;2024-03-07T08:32:44;67.22;;;28.87;;
22435;SDS011;11385;50.822;4.324;2024-03-07T08:35:12;63.73;;;27.50;;
22435;SDS011;11385;50.822;4.324;2024-03-07T08:37:39;71.45;;;28.32;;
22435;SDS011;11385;50.822;4.324;2024-03-07T08:40:07;61.53;;;28.00;;
22435;SDS011;11385;50.822;4.324;2024-03-07T08:42:36;62.95;;;29.35;;
22435;SDS011;11385;50.822;4.324;2024-03-07T08:45:04;64.37;;;27.30;;
22435;SDS011;11385;50.822;4.324;2024-03-07T08:47:32;65.08;;;28.62;;
22435;SDS011;11385;50.822;4.324;2024-03-07T08:50:01;62.55;;;27.70;;
22435;SDS011;11385;50.822;4.324;2024-03-07T08:52:30;62.67;;;28.65;;
22435;SDS011;11385;50.822;4.324;2024-03-07T08:54:58;68.60;;;28.87;;
22435;SDS011;11385;50.822;4.324;2024-03-07T08:57:24;67.47;;;28.55;;
22435;SDS011;11385;50.822;4.324;2024-03-07T08:59:51;63.13;;;27.87;;
22435;SDS011;11385;50.822;4.324;2024-03-07T09:02:18;59.48;;;27.13;;
22435;SDS011;11385;50.822;4.324;2024-03-07T09:04:44;61.80;;;26.40;;
22435;SDS011;11385;50.822;4.324;2024-03-07T09:07:11;61.35;;;27.58;;
22435;SDS011;11385;50.822;4.324;2024-03-07T09:09:40;66.30;;;27.95;;
22435;SDS011;11385;50.822;4.324;2024-03-07T09:12:09;62.70;;;28.07;;
22435;SDS011;11385;50.822;4.324;2024-03-07T09:14:35;62.35;;;28.32;;
22435;SDS011;11385;50.822;4.324;2024-03-07T09:17:03;59.55;;;26.65;;
22435;SDS011;11385;50.822;4.324;2024-03-07T09:19:31;59.38;;;26.55;;
22435;SDS011;11385;50.822;4.324;2024-03-07T09:21:58;60.25;;;26.10;;
22435;SDS011;11385;50.822;4.324;2024-03-07T09:24:26;58.95;;;26.60;;
22435;SDS011;11385;50.822;4.324;2024-03-07T09:26:53;56.53;;;26.17;;
22435;SDS011;11385;50.822;4.324;2024-03-07T09:29:22;58.35;;;27.15;;
22435;SDS011;11385;50.822;4.324;2024-03-07T09:31:49;60.55;;;26.37;;
22435;SDS011;11385;50.822;4.324;2024-03-07T09:34:17;56.90;;;26.60;;
22435;SDS011;11385;50.822;4.324;2024-03-07T09:36:47;55.25;;;25.92;;
22435;SDS011;11385;50.822;4.324;2024-03-07T09:39:15;63.45;;;27.85;;
22435;SDS011;11385;50.822;4.324;2024-03-07T09:41:42;58.28;;;25.62;;
22435;SDS011;11385;50.822;4.324;2024-03-07T09:44:09;58.90;;;26.90;;
22435;SDS011;11385;50.822;4.324;2024-03-07T09:46:38;52.58;;;24.45;;
22435;SDS011;11385;50.822;4.324;2024-03-07T09:49:07;56.70;;;24.98;;
22435;SDS011;11385;50.822;4.324;2024-03-07T09:51:38;58.87;;;25.50;;
22435;SDS011;11385;50.822;4.324;2024-03-07T09:54:05;60.70;;;26.50;;
22435;SDS011;11385;50.822;4.324;2024-03-07T09:56:32;56.53;;;26.30;;
22435;SDS011;11385;50.822;4.324;2024-03-07T09:59:01;64.50;;;27.77;;
22435;SDS011;11385;50.822;4.324;2024-03-07T10:01:32;62.05;;;28.92;;
22435;SDS011;11385;50.822;4.324;2024-03-07T10:04:01;53.52;;;25.57;;
22435;SDS011;11385;50.822;4.324;2024-03-07T10:06:41;58.75;;;26.87;;
22435;SDS011;11385;50.822;4.324;2024-03-07T10:09:08;50.35;;;24.82;;
22435;SDS011;11385;50.822;4.324;2024-03-07T10:11:38;60.80;;;26.97;;
22435;SDS011;11385;50.822;4.324;2024-03-07T10:14:07;63.08;;;27.85;;
22435;SDS011;11385;50.822;4.324;2024-03-07T10:16:35;54.55;;;28.07;;
22435;SDS011;11385;50.822;4.324;2024-03-07T10:19:04;59.63;;;27.22;;
22435;SDS011;11385;50.822;4.324;2024-03-07T10:21:33;54.90;;;26.45;;
22435;SDS011;11385;50.822;4.324;2024-03-07T10:24:04;59.00;;;26.93;;
22435;SDS011;11385;50.822;4.324;2024-03-07T10:26:34;56.73;;;26.48;;
22435;SDS011;11385;50.822;4.324;2024-03-07T10:29:03;54.40;;;26.97;;
22435;SDS011;11385;50.822;4.324;2024-03-07T10:31:31;58.28;;;26.12;;
22435;SDS011;11385;50.822;4.324;2024-03-07T10:34:01;50.33;;;25.70;;
22435;SDS011;11385;50.822;4.324;2024-03-07T10:36:28;56.55;;;26.35;;
22435;SDS011;11385;50.822;4.324;2024-03-07T10:38:59;56.05;;;26.82;;
22435;SDS011;11385;50.822;4.324;2024-03-07T10:41:33;52.90;;;27.13;;
22435;SDS011;11385;50.822;4.324;2024-03-07T10:44:02;54.75;;;26.87;;
22435;SDS011;11385;50.822;4.324;2024-03-07T10:46:32;55.05;;;27.17;;
22435;SDS011;11385;50.822;4.324;2024-03-07T10:49:01;54.77;;;26.33;;
22435;SDS011;11385;50.822;4.324;2024-03-07T10:51:36;51.33;;;25.65;;
22435;SDS011;11385;50.822;4.324;2024-03-07T10:54:12;49.95;;;25.10;;
22435;SDS011;11385;50.822;4.324;2024-03-07T10:56:56;50.70;;;24.80;;
22435;SDS011;11385;50.822;4.324;2024-03-07T10:59:25;51.33;;;24.77;;
22435;SDS011;11385;50.822;4.324;2024-03-07T11:07:14;47.70;;;23.50;;
22435;SDS011;11385;50.822;4.324;2024-03-07T11:09:41;46.40;;;24.50;;
22435;SDS011;11385;50.822;4.324;2024-03-07T11:12:12;38.67;;;19.98;;
22435;SDS011;11385;50.822;4.324;2024-03-07T11:14:39;47.48;;;25.15;;
22435;SDS011;11385;50.822;4.324;2024-03-07T11:17:08;45.25;;;24.57;;
22435;SDS011;11385;50.822;4.324;2024-03-07T11:19:38;45.25;;;24.18;;
22435;SDS011;11385;50.822;4.324;2024-03-07T11:22:05;45.75;;;23.50;;
22435;SDS011;11385;50.822;4.324;2024-03-07T11:24:34;43.02;;;23.45;;
22435;SDS011;11385;50.822;4.324;2024-03-07T11:27:03;47.88;;;24.50;;
22435;SDS011;11385;50.822;4.324;2024-03-07T11:32:10;39.05;;;22.22;;
22435;SDS011;11385;50.822;4.324;2024-03-07T11:34:39;41.50;;;22.77;;
22435;SDS011;11385;50.822;4.324;2024-03-07T11:37:08;41.45;;;21.55;;
22435;SDS011;11385;50.822;4.324;2024-03-07T11:39:39;41.08;;;21.27;;
22435;SDS011;11385;50.822;4.324;2024-03-07T11:42:09;39.00;;;21.90;;
22435;SDS011;11385;50.822;4.324;2024-03-07T11:44:37;44.75;;;22.45;;
22435;SDS011;11385;50.822;4.324;2024-03-07T11:47:05;39.27;;;21.52;;
22435;SDS011;11385;50.822;4.324;2024-03-07T11:49:35;33.78;;;19.82;;
22435;SDS011;11385;50.822;4.324;2024-03-07T11:52:03;38.10;;;21.27;;
22435;SDS011;11385;50.822;4.324;2024-03-07T11:54:32;36.65;;;20.30;;
22435;SDS011;11385;50.822;4.324;2024-03-07T11:56:59;37.28;;;19.57;;
22435;SDS011;11385;50.822;4.324;2024-03-07T11:59:26;34.90;;;20.60;;
22435;SDS011;11385;50.822;4.324;2024-03-07T12:01:54;33.42;;;19.32;;
22435;SDS011;11385;50.822;4.324;2024-03-07T12:04:23;32.95;;;18.25;;
22435;SDS011;11385;50.822;4.324;2024-03-07T12:06:52;34.80;;;20.35;;
22435;SDS011;11385;50.822;4.324;2024-03-07T12:09:19;33.45;;;19.12;;
22435;SDS011;11385;50.822;4.324;2024-03-07T12:11:48;37.70;;;18.50;;
22435;SDS011;11385;50.822;4.324;2024-03-07T12:14:19;30.05;;;18.02;;
22435;SDS011;11385;50.822;4.324;2024-03-07T12:16:45;31.90;;;19.35;;
22435;SDS011;11385;50.822;4.324;2024-03-07T12:19:13;29.63;;;18.05;;
22435;SDS011;11385;50.822;4.324;2024-03-07T12:21:42;28.17;;;16.73;;
22435;SDS011;11385;50.822;4.324;2024-03-07T12:24:11;30.75;;;17.57;;
22435;SDS011;11385;50.822;4.324;2024-03-07T12:26:39;29.52;;;17.15;;
22435;SDS011;11385;50.822;4.324;2024-03-07T12:29:07;30.10;;;17.17;;
22435;SDS011;11385;50.822;4.324;2024-03-07T12:31:41;25.40;;;15.68;;
22435;SDS011;11385;50.822;4.324;2024-03-07T12:34:08;28.40;;;16.62;;
22435;SDS011;11385;50.822;4.324;2024-03-07T12:36:36;28.27;;;17.40;;
22435;SDS011;11385;50.822;4.324;2024-03-07T12:39:09;28.40;;;17.07;;
22435;SDS011;11385;50.822;4.324;2024-03-07T12:41:38;28.47;;;17.15;;
22435;SDS011;11385;50.822;4.324;2024-03-07T12:44:05;25.77;;;15.83;;
22435;SDS011;11385;50.822;4.324;2024-03-07T12:46:36;27.02;;;16.77;;
22435;SDS011;11385;50.822;4.324;2024-03-07T12:49:04;30.85;;;17.75;;
22435;SDS011;11385;50.822;4.324;2024-03-07T12:51:31;29.23;;;16.90;;
22435;SDS011;11385;50.822;4.324;2024-03-07T12:54:00;30.70;;;15.75;;
22435;SDS011;11385;50.822;4.324;2024-03-07T12:56:26;29.98;;;17.12;;
22435;SDS011;11385;50.822;4.324;2024-03-07T12:58:56;28.02;;;17.75;;
22435;SDS011;11385;50.822;4.324;2024-03-07T13:01:24;30.30;;;18.23;;
22435;SDS011;11385;50.822;4.324;2024-03-07T13:03:51;29.00;;;17.75;;
22435;SDS011;11385;50.822;4.324;2024-03-07T13:06:19;32.15;;;17.55;;
22435;SDS011;11385;50.822;4.324;2024-03-07T13:08:47;29.20;;;17.70;;
22435;SDS011;11385;50.822;4.324;2024-03-07T13:11:14;29.65;;;17.57;;
22435;SDS011;11385;50.822;4.324;2024-03-07T13:13:41;29.45;;;17.30;;
22435;SDS011;11385;50.822;4.324;2024-03-07T13:16:08;26.48;;;16.60;;
22435;SDS011;11385;50.822;4.324;2024-03-07T13:18:36;29.35;;;18.00;;
22435;SDS011;11385;50.822;4.324;2024-03-07T13:21:03;31.70;;;18.05;;
22435;SDS011;11385;50.822;4.324;2024-03-07T13:23:32;29.10;;;17.65;;
22435;SDS011;11385;50.822;4.324;2024-03-07T13:26:01;31.12;;;18.73;;
22435;SDS011;11385;50.822;4.324;2024-03-07T13:28:30;31.73;;;17.75;;
22435;SDS011;11385;50.822;4.324;2024-03-07T13:30:58;28.83;;;18.57;;
22435;SDS011;11385;50.822;4.324;2024-03-07T13:33:25;29.95;;;18.73;;
22435;SDS011;11385;50.822;4.324;2024-03-07T13:35:53;30.20;;;18.55;;
22435;SDS011;11385;50.822;4.324;2024-03-07T13:38:20;28.17;;;17.70;;
22435;SDS011;11385;50.822;4.324;2024-03-07T13:40:48;27.05;;;16.12;;
22435;SDS011;11385;50.822;4.324;2024-03-07T13:43:18;25.30;;;16.20;;
22435;SDS011;11385;50.822;4.324;2024-03-07T13:45:47;31.48;;;17.30;;
22435;SDS011;11385;50.822;4.324;2024-03-07T13:48:18;26.57;;;16.90;;
22435;SDS011;11385;50.822;4.324;2024-03-07T13:50:46;25.30;;;15.78;;
22435;SDS011;11385;50.822;4.324;2024-03-07T13:53:16;27.50;;;16.65;;
22435;SDS011;11385;50.822;4.324;2024-03-07T13:59:15;28.90;;;16.27;;
22435;SDS011;11385;50.822;4.324;2024-03-07T14:04:31;24.32;;;15.43;;
22435;SDS011;11385;50.822;4.324;2024-03-07T14:07:12;27.62;;;15.90;;
22435;SDS011;11385;50.822;4.324;2024-03-07T14:23:30;25.92;;;16.55;;
22435;SDS011;11385;50.822;4.324;2024-03-07T14:29:01;27.25;;;16.67;;
22435;SDS011;11385;50.822;4.324;2024-03-07T14:31:29;25.50;;;15.65;;
22435;SDS011;11385;50.822;4.324;2024-03-07T14:34:02;27.98;;;15.32;;
22435;SDS011;11385;50.822;4.324;2024-03-07T14:36:50;26.65;;;15.58;;
22435;SDS011;11385;50.822;4.324;2024-03-07T14:39:19;25.30;;;15.45;;
22435;SDS011;11385;50.822;4.324;2024-03-07T14:41:50;21.60;;;14.07;;
22435;SDS011;11385;50.822;4.324;2024-03-07T14:44:21;23.10;;;14.55;;
22435;SDS011;11385;50.822;4.324;2024-03-07T14:46:52;24.30;;;13.25;;
22435;SDS011;11385;50.822;4.324;2024-03-07T14:49:22;22.62;;;14.50;;
22435;SDS011;11385;50.822;4.324;2024-03-07T14:51:48;23.77;;;15.38;;
22435;SDS011;11385;50.822;4.324;2024-03-07T14:54:20;21.30;;;14.47;;
22435;SDS011;11385;50.822;4.324;2024-03-07T14:56:48;21.33;;;13.65;;
22435;SDS011;11385;50.822;4.324;2024-03-07T14:59:17;22.20;;;14.25;;